createdAt,value
2022-08-12T00:00:19.814Z,11.90
2022-08-12T00:03:26.245Z,11.90
2022-08-12T00:06:32.519Z,11.80
2022-08-12T00:09:37.481Z,11.80
2022-08-12T00:12:42.882Z,11.80
2022-08-12T00:15:49.283Z,11.80
2022-08-12T00:18:58.039Z,11.80
2022-08-12T00:22:03.797Z,11.80
2022-08-12T00:25:08.693Z,11.90
2022-08-12T00:28:15.276Z,11.90
2022-08-12T00:31:21.087Z,12.00
2022-08-12T00:34:32.373Z,12.10
2022-08-12T00:37:37.929Z,12.10
2022-08-12T00:40:45.975Z,12.20
2022-08-12T00:43:36.216Z,12.20
2022-08-12T00:46:32.444Z,12.30
2022-08-12T00:49:23.324Z,12.30
2022-08-12T00:52:11.311Z,12.30
2022-08-12T00:55:00.958Z,12.30
2022-08-12T00:57:50.690Z,12.30
2022-08-12T01:00:42.605Z,12.30
2022-08-12T01:03:51.722Z,12.40
2022-08-12T01:07:00.995Z,12.40
2022-08-12T01:10:07.204Z,12.40
2022-08-12T01:12:55.828Z,12.50
2022-08-12T01:16:04.834Z,12.50
2022-08-12T01:18:55.392Z,12.50
2022-08-12T01:22:03.205Z,12.60
2022-08-12T01:24:59.193Z,12.70
2022-08-12T01:27:51.108Z,12.70
2022-08-12T01:30:42.186Z,12.80
2022-08-12T01:33:33.554Z,12.90
2022-08-12T01:36:27.029Z,13.00
2022-08-12T01:39:17.767Z,13.00
2022-08-12T01:42:10.512Z,13.10
2022-08-12T01:44:59.989Z,13.10
2022-08-12T01:48:06.367Z,13.20
2022-08-12T01:51:05.298Z,13.20
2022-08-12T01:54:04.575Z,13.20
2022-08-12T01:56:57.195Z,13.20
2022-08-12T01:59:56.301Z,13.30
2022-08-12T02:02:49.079Z,13.30
2022-08-12T02:06:06.679Z,13.30
2022-08-12T02:09:17.831Z,13.40
2022-08-12T02:12:13.450Z,13.40
2022-08-12T02:15:13.162Z,13.40
2022-08-12T02:18:10.659Z,13.30
2022-08-12T02:21:05.504Z,13.30
2022-08-12T02:23:53.979Z,13.30
2022-08-12T02:26:44.301Z,13.30
2022-08-12T02:29:32.739Z,13.30
2022-08-12T02:32:23.504Z,13.30
2022-08-12T02:35:15.000Z,13.40
2022-08-12T02:38:05.351Z,13.40
2022-08-12T02:40:55.735Z,13.40
2022-08-12T02:43:51.406Z,13.50
2022-08-12T02:46:40.386Z,13.50
2022-08-12T02:49:32.751Z,13.60
2022-08-12T02:52:20.925Z,13.70
2022-08-12T02:55:28.926Z,13.80
2022-08-12T02:58:32.854Z,13.90
2022-08-12T03:01:32.841Z,13.90
2022-08-12T03:04:27.333Z,13.90
2022-08-12T03:07:22.722Z,13.90
2022-08-12T03:10:17.968Z,13.90
2022-08-12T03:13:11.072Z,13.90
2022-08-12T03:15:59.472Z,13.90
2022-08-12T03:18:47.985Z,13.90
2022-08-12T03:21:52.843Z,14.00
2022-08-12T03:24:47.396Z,14.00
2022-08-12T03:27:36.328Z,14.00
2022-08-12T03:30:25.923Z,14.00
2022-08-12T03:33:16.164Z,13.90
2022-08-12T03:36:07.084Z,13.90
2022-08-12T03:39:23.676Z,13.80
2022-08-12T03:42:36.702Z,13.70
2022-08-12T03:45:51.529Z,13.70
2022-08-12T03:48:59.912Z,13.70
2022-08-12T03:52:05.736Z,13.70
2022-08-12T03:55:10.471Z,13.80
2022-08-12T03:58:17.635Z,13.90
2022-08-12T04:01:06.937Z,13.90
2022-08-12T04:03:55.885Z,14.00
2022-08-12T04:06:46.016Z,14.10
2022-08-12T04:09:33.951Z,14.20
2022-08-12T04:12:39.411Z,14.40
2022-08-12T04:15:30.688Z,14.50
2022-08-12T04:18:18.315Z,14.60
2022-08-12T04:21:25.851Z,14.70
2022-08-12T04:24:14.503Z,14.80
2022-08-12T04:27:02.551Z,14.90
2022-08-12T04:30:30.290Z,15.00
2022-08-12T04:33:00.755Z,15.20
2022-08-12T04:35:49.339Z,15.30
2022-08-12T04:38:39.106Z,15.50
2022-08-12T04:41:27.690Z,15.60
2022-08-12T04:44:15.145Z,15.80
2022-08-12T04:47:02.938Z,16.00
2022-08-12T04:49:52.303Z,16.10
2022-08-12T04:52:40.266Z,16.30
2022-08-12T04:55:28.490Z,16.50
2022-08-12T04:58:16.308Z,16.60
2022-08-12T05:01:17.517Z,16.70
2022-08-12T05:04:06.777Z,16.80
2022-08-12T05:06:55.920Z,17.00
2022-08-12T05:10:01.732Z,17.10
2022-08-12T05:12:55.184Z,17.20
2022-08-12T05:16:02.624Z,17.30
2022-08-12T05:18:52.771Z,17.30
2022-08-12T05:21:41.311Z,17.40
2022-08-12T05:24:30.997Z,17.40
2022-08-12T05:27:18.857Z,17.40
2022-08-12T05:30:09.393Z,17.50
2022-08-12T05:32:59.053Z,17.50
2022-08-12T05:35:50.218Z,17.60
2022-08-12T05:38:58.269Z,17.60
2022-08-12T05:41:47.169Z,17.70
2022-08-12T05:44:35.564Z,17.70
2022-08-12T05:47:23.228Z,17.70
2022-08-12T05:50:26.267Z,17.80
2022-08-12T05:53:13.934Z,17.90
2022-08-12T05:56:01.993Z,17.90
2022-08-12T05:58:52.464Z,18.00
2022-08-12T06:02:09.556Z,18.10
2022-08-12T06:04:49.965Z,18.20
2022-08-12T06:08:01.596Z,18.40
2022-08-12T06:10:51.309Z,18.50
2022-08-12T06:13:54.241Z,18.60
2022-08-12T06:16:46.431Z,18.70
2022-08-12T06:20:27.734Z,18.90
2022-08-12T06:22:42.307Z,18.90
2022-08-12T06:25:30.565Z,19.00
2022-08-12T06:28:21.273Z,19.10
2022-08-12T06:31:26.632Z,19.20
2022-08-12T06:35:26.534Z,19.30
2022-08-12T06:37:25.438Z,19.40
2022-08-12T06:40:15.006Z,19.50
2022-08-12T06:43:01.835Z,19.70
2022-08-12T06:45:49.660Z,19.80
2022-08-12T06:48:37.928Z,19.90
2022-08-12T06:51:28.369Z,20.00
2022-08-12T06:54:31.296Z,20.20
2022-08-12T06:58:05.418Z,20.30
2022-08-12T07:00:32.563Z,20.50
2022-08-12T07:03:23.578Z,20.70
2022-08-12T07:06:11.721Z,20.90
2022-08-12T07:09:01.159Z,21.10
2022-08-12T07:11:50.978Z,21.30
2022-08-12T07:14:41.037Z,21.50
2022-08-12T07:17:37.483Z,21.60
2022-08-12T07:20:51.053Z,21.70
2022-08-12T07:23:38.981Z,21.80
2022-08-12T07:26:29.476Z,22.00
2022-08-12T07:29:17.328Z,22.10
2022-08-12T07:32:05.524Z,22.30
2022-08-12T07:34:54.762Z,22.30
2022-08-12T07:37:43.074Z,22.50
2022-08-12T07:40:31.276Z,22.60
2022-08-12T07:43:20.340Z,22.60
2022-08-12T07:46:10.788Z,22.80
2022-08-12T07:49:01.196Z,23.00
2022-08-12T07:51:48.811Z,23.10
2022-08-12T07:54:37.339Z,23.20
2022-08-12T07:57:24.939Z,23.30
2022-08-12T08:00:16.176Z,23.40
2022-08-12T08:03:04.655Z,23.50
2022-08-12T08:05:53.711Z,23.60
2022-08-12T08:08:41.742Z,23.70
2022-08-12T08:11:47.128Z,23.80
2022-08-12T08:14:37.055Z,24.10
2022-08-12T08:17:27.072Z,24.30
2022-08-12T08:20:15.129Z,24.40
2022-08-12T08:23:06.232Z,24.50
2022-08-12T08:25:54.295Z,24.60
2022-08-12T08:28:42.225Z,24.70
2022-08-12T08:31:30.108Z,24.80
2022-08-12T08:34:33.514Z,24.90
2022-08-12T08:37:32.843Z,25.10
2022-08-12T08:40:39.202Z,25.40
2022-08-12T08:43:27.111Z,25.50
2022-08-12T08:46:33.088Z,25.60
2022-08-12T08:49:23.215Z,25.60
2022-08-12T08:52:11.965Z,25.70
2022-08-12T08:54:59.968Z,25.90
2022-08-12T08:57:50.630Z,26.00
2022-08-12T09:00:39.836Z,26.20
2022-08-12T09:06:37.822Z,26.10
2022-08-12T09:12:55.095Z,25.80
2022-08-12T09:15:43.795Z,25.80
2022-08-12T09:18:44.350Z,26.10
2022-08-12T09:24:41.426Z,26.80
2022-08-12T09:27:58.006Z,27.10
2022-08-12T09:30:41.757Z,27.10
2022-08-12T09:34:28.313Z,27.10
2022-08-12T09:36:57.921Z,26.90
2022-08-12T09:40:03.474Z,26.70
2022-08-12T09:43:19.493Z,26.70
2022-08-12T09:46:20.936Z,26.60
2022-08-12T09:49:16.385Z,26.50
2022-08-12T09:52:04.757Z,26.30
2022-08-12T09:54:59.866Z,26.10
2022-08-12T09:58:45.290Z,26.10
2022-08-12T10:01:06.558Z,26.50
2022-08-12T10:04:04.750Z,26.90
2022-08-12T10:06:57.551Z,27.30
2022-08-12T10:09:58.807Z,27.10
2022-08-12T10:13:07.843Z,27.30
2022-08-12T10:16:01.830Z,27.40
2022-08-12T10:18:54.803Z,28.00
2022-08-12T10:21:44.161Z,28.60
2022-08-12T10:24:32.120Z,29.00
2022-08-12T10:28:04.874Z,29.10
2022-08-12T10:30:58.428Z,29.10
2022-08-12T10:34:05.163Z,29.30
2022-08-12T10:37:00.402Z,29.30
2022-08-12T10:40:11.395Z,29.30
2022-08-12T10:43:20.321Z,29.40
2022-08-12T10:46:13.824Z,29.40
2022-08-12T10:49:06.310Z,30.10
2022-08-12T10:52:34.083Z,30.20
2022-08-12T10:55:19.337Z,29.60
2022-08-12T10:58:15.324Z,28.90
2022-08-12T11:01:25.768Z,29.10
2022-08-12T11:04:39.555Z,29.40
2022-08-12T11:08:37.230Z,30.30
2022-08-12T11:10:43.388Z,31.20
2022-08-12T11:13:46.731Z,31.20
2022-08-12T11:16:38.433Z,30.20
2022-08-12T11:19:27.085Z,29.40
2022-08-12T11:22:18.382Z,29.10
2022-08-12T11:25:12.213Z,29.30
2022-08-12T11:28:00.064Z,29.70
2022-08-12T11:30:47.531Z,29.70
2022-08-12T11:34:06.678Z,29.70
2022-08-12T11:36:53.345Z,29.30
2022-08-12T11:42:50.789Z,29.30
2022-08-12T11:45:39.657Z,29.40
2022-08-12T11:48:51.577Z,29.40
2022-08-12T11:51:40.111Z,29.60
2022-08-12T11:54:29.763Z,30.00
2022-08-12T11:58:14.586Z,30.10
2022-08-12T12:03:45.692Z,30.10
2022-08-12T12:06:35.930Z,30.80
2022-08-12T12:09:24.692Z,31.30
2022-08-12T12:12:12.331Z,31.30
2022-08-12T12:15:04.890Z,30.90
2022-08-12T12:17:55.707Z,30.60
2022-08-12T12:20:43.734Z,30.20
2022-08-12T12:23:36.308Z,29.90
2022-08-12T12:26:35.309Z,29.60
2022-08-12T12:30:18.971Z,29.40
2022-08-12T12:32:31.571Z,29.20
2022-08-12T12:36:18.558Z,29.20
2022-08-12T12:38:27.272Z,29.70
2022-08-12T12:41:17.206Z,30.80
2022-08-12T12:44:05.333Z,31.70
2022-08-12T12:46:54.873Z,32.10
2022-08-12T12:49:42.560Z,31.70
2022-08-12T12:52:30.175Z,31.10
2022-08-12T12:55:18.085Z,30.40
2022-08-12T12:58:11.315Z,30.10
2022-08-12T13:01:04.516Z,30.50
2022-08-12T13:04:12.341Z,31.20
2022-08-12T13:07:02.249Z,31.60
2022-08-12T13:09:53.544Z,31.60
2022-08-12T13:12:51.149Z,31.00
2022-08-12T13:15:45.351Z,30.60
2022-08-12T13:18:37.554Z,30.80
2022-08-12T13:21:33.681Z,31.60
2022-08-12T13:24:24.820Z,32.10
2022-08-12T13:27:20.812Z,31.90
2022-08-12T13:30:12.515Z,31.60
2022-08-12T13:33:01.832Z,31.60
2022-08-12T13:36:06.245Z,31.80
2022-08-12T13:38:55.536Z,32.10
2022-08-12T13:41:44.612Z,32.30
2022-08-12T13:44:32.421Z,32.80
2022-08-12T13:47:22.083Z,33.30
2022-08-12T13:50:11.679Z,33.90
2022-08-12T13:53:00.370Z,34.30
2022-08-12T13:56:01.635Z,34.20
2022-08-12T13:58:52.575Z,33.50
2022-08-12T14:01:41.337Z,32.70
2022-08-12T14:04:29.077Z,31.90
2022-08-12T14:07:19.682Z,31.10
2022-08-12T14:10:28.297Z,30.50
2022-08-12T14:14:05.836Z,30.60
2022-08-12T14:16:38.198Z,30.90
2022-08-12T14:19:35.798Z,31.50
2022-08-12T14:22:28.406Z,32.10
2022-08-12T14:25:18.317Z,32.60
2022-08-12T14:28:11.363Z,32.80
2022-08-12T14:31:01.591Z,33.10
2022-08-12T14:33:52.698Z,33.50
2022-08-12T14:36:42.370Z,33.10
2022-08-12T14:39:31.926Z,32.20
2022-08-12T14:42:19.847Z,31.30
2022-08-12T14:45:09.220Z,30.80
2022-08-12T14:48:00.630Z,31.00
2022-08-12T14:52:10.825Z,31.60
2022-08-12T14:56:09.019Z,32.40
2022-08-12T14:57:20.394Z,33.10
2022-08-12T15:00:30.747Z,33.60
2022-08-12T15:03:18.632Z,34.00
2022-08-12T15:06:44.278Z,34.40
2022-08-12T15:09:16.851Z,34.10
2022-08-12T15:12:05.491Z,33.30
2022-08-12T15:15:04.318Z,32.70
2022-08-12T15:18:02.197Z,32.60
2022-08-12T15:20:51.593Z,33.20
2022-08-12T15:23:55.107Z,33.60
2022-08-12T15:26:43.813Z,33.70
2022-08-12T15:29:34.536Z,33.80
2022-08-12T15:32:32.328Z,33.60
2022-08-12T15:35:20.666Z,33.60
2022-08-12T15:38:12.824Z,33.40
2022-08-12T15:41:03.049Z,32.80
2022-08-12T15:44:15.858Z,32.40
2022-08-12T15:46:58.291Z,32.60
2022-08-12T15:49:59.688Z,33.00
2022-08-12T15:52:49.434Z,33.30
2022-08-12T15:55:37.259Z,33.20
2022-08-12T15:58:34.441Z,33.10
2022-08-12T16:01:22.380Z,33.20
2022-08-12T16:04:13.715Z,33.40
2022-08-12T16:07:09.152Z,33.50
2022-08-12T16:10:05.954Z,33.50
2022-08-12T16:12:57.094Z,33.30
2022-08-12T16:15:51.088Z,33.10
2022-08-12T16:18:52.113Z,32.80
2022-08-12T16:21:52.747Z,32.60
2022-08-12T16:24:47.879Z,32.60
2022-08-12T16:27:41.896Z,32.40
2022-08-12T16:30:35.168Z,32.30
2022-08-12T16:33:36.148Z,32.10
2022-08-12T16:36:46.007Z,31.90
2022-08-12T16:40:00.978Z,31.20
2022-08-12T16:43:01.747Z,30.50
2022-08-12T16:46:05.400Z,29.60
2022-08-12T16:49:08.582Z,28.90
2022-08-12T16:52:01.012Z,28.30
2022-08-12T16:54:48.920Z,27.90
2022-08-12T16:57:36.979Z,27.60
2022-08-12T17:00:25.852Z,27.30
2022-08-12T17:03:13.711Z,27.30
2022-08-12T17:06:22.000Z,27.40
2022-08-12T17:09:17.259Z,27.90
2022-08-12T17:12:08.214Z,28.20
2022-08-12T17:14:55.739Z,28.40
2022-08-12T17:17:46.733Z,28.40
2022-08-12T17:20:39.636Z,28.50
2022-08-12T17:23:48.448Z,28.50
2022-08-12T17:26:44.964Z,28.50
2022-08-12T17:30:01.894Z,28.40
2022-08-12T17:32:53.250Z,28.00
2022-08-12T17:35:43.354Z,27.30
2022-08-12T17:38:38.188Z,26.60
2022-08-12T17:41:56.574Z,26.10
2022-08-12T17:44:35.134Z,25.60
2022-08-12T17:48:01.234Z,25.10
2022-08-12T17:50:33.751Z,24.70
2022-08-12T17:53:21.886Z,24.30
2022-08-12T17:56:09.984Z,24.00
2022-08-12T17:58:59.130Z,23.80
2022-08-12T18:01:48.586Z,23.50
2022-08-12T18:04:37.717Z,23.30
2022-08-12T18:07:47.666Z,23.00
2022-08-12T18:10:55.441Z,22.80
2022-08-12T18:13:43.675Z,22.60
2022-08-12T18:16:32.166Z,22.40
2022-08-12T18:19:20.766Z,22.20
2022-08-12T18:22:08.524Z,22.10
2022-08-12T18:25:04.020Z,21.80
2022-08-12T18:28:16.519Z,21.70
2022-08-12T18:31:03.858Z,21.60
2022-08-12T18:33:52.447Z,21.40
2022-08-12T18:36:41.150Z,21.30
2022-08-12T18:39:51.935Z,21.10
2022-08-12T18:42:54.231Z,21.00
2022-08-12T18:45:47.293Z,20.90
2022-08-12T18:48:45.668Z,20.70
2022-08-12T18:51:48.945Z,20.60
2022-08-12T18:54:53.916Z,20.50
2022-08-12T18:58:08.431Z,20.40
2022-08-12T19:00:55.763Z,20.30
2022-08-12T19:03:43.768Z,20.20
2022-08-12T19:06:38.269Z,20.10
2022-08-12T19:09:39.146Z,20.00
2022-08-12T19:13:03.793Z,19.90
2022-08-12T19:15:57.563Z,19.80
2022-08-12T19:18:46.337Z,19.70
2022-08-12T19:21:34.581Z,19.60
2022-08-12T19:24:42.743Z,19.50
2022-08-12T19:27:32.656Z,19.40
2022-08-12T19:30:45.359Z,19.30
2022-08-12T19:33:33.568Z,19.20
2022-08-12T19:36:26.565Z,19.10
2022-08-12T19:39:22.945Z,19.00
2022-08-12T19:42:14.483Z,19.00
2022-08-12T19:45:05.791Z,18.90
2022-08-12T19:48:04.325Z,18.80
2022-08-12T19:50:55.628Z,18.70
2022-08-12T19:53:57.711Z,18.60
2022-08-12T19:56:49.756Z,18.60
2022-08-12T19:59:42.940Z,18.50
2022-08-12T20:02:48.409Z,18.40
2022-08-12T20:06:06.528Z,18.30
2022-08-12T20:08:48.704Z,18.30
2022-08-12T20:12:12.014Z,18.20
2022-08-12T20:14:48.219Z,18.20
2022-08-12T20:17:50.959Z,18.10
2022-08-12T20:20:40.810Z,18.10
2022-08-12T20:23:50.312Z,18.00
2022-08-12T20:26:41.189Z,18.00
2022-08-12T20:29:35.517Z,17.90
2022-08-12T20:32:47.462Z,17.90
2022-08-12T20:36:06.850Z,17.80
2022-08-12T20:38:45.905Z,17.70
2022-08-12T20:41:34.731Z,17.70
2022-08-12T20:44:22.899Z,17.70
2022-08-12T20:47:19.730Z,17.70
2022-08-12T20:50:10.030Z,17.70
2022-08-12T20:52:57.449Z,17.70
2022-08-12T20:55:56.868Z,17.80
2022-08-12T20:58:45.418Z,17.90
2022-08-12T21:01:47.040Z,17.90
2022-08-12T21:04:53.504Z,18.00
2022-08-12T21:07:51.812Z,18.00
2022-08-12T21:10:39.972Z,18.10
2022-08-12T21:13:29.561Z,18.10
2022-08-12T21:16:35.582Z,18.20
2022-08-12T21:19:24.697Z,18.30
2022-08-12T21:22:33.357Z,18.30
2022-08-12T21:25:20.884Z,18.30
2022-08-12T21:28:10.455Z,18.40
2022-08-12T21:32:34.324Z,18.50
2022-08-12T21:34:10.851Z,18.50
2022-08-12T21:37:26.450Z,18.60
2022-08-12T21:40:13.631Z,18.60
2022-08-12T21:43:03.636Z,18.60
2022-08-12T21:46:00.738Z,18.60
2022-08-12T21:48:56.737Z,18.60
2022-08-12T21:51:49.670Z,18.70
2022-08-12T21:54:40.684Z,18.70
2022-08-12T21:57:30.402Z,18.70
2022-08-12T22:00:32.018Z,18.60
2022-08-12T22:04:02.818Z,18.60
2022-08-12T22:06:53.565Z,18.60
2022-08-12T22:09:43.252Z,18.50
2022-08-12T22:12:34.769Z,18.50
2022-08-12T22:15:26.186Z,18.40
2022-08-12T22:18:13.751Z,18.30
2022-08-12T22:21:03.801Z,18.20
2022-08-12T22:24:04.925Z,18.10
2022-08-12T22:26:53.375Z,18.00
2022-08-12T22:29:58.719Z,18.00
2022-08-12T22:32:49.880Z,17.90
2022-08-12T22:35:56.282Z,17.90
2022-08-12T22:38:48.055Z,17.90
2022-08-12T22:41:57.960Z,17.80
2022-08-12T22:45:03.484Z,17.70
2022-08-12T22:47:54.883Z,17.70
2022-08-12T22:50:43.867Z,17.60
2022-08-12T22:53:36.181Z,17.50
2022-08-12T22:56:30.891Z,17.50
2022-08-12T22:59:21.883Z,17.50
2022-08-12T23:02:11.281Z,17.40
2022-08-12T23:04:59.633Z,17.40
2022-08-12T23:07:52.923Z,17.30
2022-08-12T23:10:48.287Z,17.30
2022-08-12T23:13:55.533Z,17.20
2022-08-12T23:16:46.478Z,17.20
2022-08-12T23:19:38.466Z,17.20
2022-08-12T23:22:36.162Z,17.20
2022-08-12T23:25:32.789Z,17.10
2022-08-12T23:28:53.237Z,17.10
2022-08-12T23:32:03.024Z,17.00
2022-08-12T23:34:50.589Z,16.90
2022-08-12T23:37:47.810Z,16.90
2022-08-12T23:40:41.528Z,16.90
2022-08-12T23:43:38.743Z,16.90
2022-08-12T23:46:28.977Z,16.80
2022-08-12T23:49:55.551Z,16.80
2022-08-12T23:52:25.696Z,16.70
2022-08-12T23:55:29.159Z,16.70
2022-08-12T23:58:25.664Z,16.70
